Time;durP1;ratioP1;P1;durP2;ratioP2;P2;SDS_P1;SDS_P2;PMS_P1;PMS_P2;Temp;Humidity;BMP_temperature;BMP_pressure;BME280_temperature;BME280_humidity;BME280_pressure;Samples;Min_cycle;Max_cycle;Signal;HPM_P1;HPM_P2
2021/11/21 00:00:08;;;;;;;30.63;20.73;;;6.60;99.90;;;;;;4995256;28;20039;-53
2021/11/21 00:02:35;;;;;;;31.25;21.45;;;6.60;99.90;;;;;;4990075;28;20116;-46
2021/11/21 00:05:00;;;;;;;35.72;21.73;;;6.30;99.90;;;;;;4990950;28;20042;-50
2021/11/21 00:07:26;;;;;;;29.98;20.67;;;6.10;99.90;;;;;;5019295;28;20093;-51
2021/11/21 00:09:52;;;;;;;31.73;20.88;;;6.10;99.90;;;;;;4994988;28;20030;-47
2021/11/21 00:12:18;;;;;;;33.20;23.25;;;6.10;99.90;;;;;;4993391;28;20409;-54
2021/11/21 00:14:44;;;;;;;30.27;21.45;;;6.10;99.90;;;;;;5008699;28;20066;-50
2021/11/21 00:17:11;;;;;;;27.88;16.52;;;6.00;99.90;;;;;;4993824;28;20070;-50
2021/11/21 00:19:41;;;;;;;31.67;21.85;;;5.80;99.90;;;;;;4993319;28;20038;-51
2021/11/21 00:22:12;;;;;;;32.97;21.90;;;5.80;99.90;;;;;;4993867;28;20685;-44
2021/11/21 00:24:39;;;;;;;29.45;19.65;;;5.90;99.90;;;;;;4993449;28;20045;-51
2021/11/21 00:27:06;;;;;;;32.45;20.65;;;5.80;99.90;;;;;;4996605;28;20030;-47
2021/11/21 00:29:32;;;;;;;32.70;23.30;;;5.80;99.90;;;;;;4992405;28;20027;-48
2021/11/21 00:31:58;;;;;;;32.53;22.40;;;6.00;99.90;;;;;;4993158;28;20508;-52
2021/11/21 00:34:24;;;;;;;29.85;21.83;;;5.90;99.90;;;;;;4992438;28;20101;-52
2021/11/21 00:36:49;;;;;;;28.77;19.45;;;6.00;99.90;;;;;;4990338;28;20030;-52
2021/11/21 00:39:15;;;;;;;26.77;20.90;;;6.00;99.90;;;;;;5008597;28;20038;-55
2021/11/21 00:41:41;;;;;;;32.58;22.13;;;6.10;99.90;;;;;;4993824;28;20045;-56
2021/11/21 00:44:07;;;;;;;33.33;22.33;;;6.20;99.90;;;;;;4992793;28;20030;-55
2021/11/21 00:46:33;;;;;;;33.85;22.63;;;6.40;99.90;;;;;;5007272;28;20042;-55
2021/11/21 00:49:00;;;;;;;32.55;21.45;;;6.70;99.90;;;;;;4990864;28;20042;-54
2021/11/21 00:51:26;;;;;;;26.38;19.70;;;6.60;99.90;;;;;;4992583;28;20098;-54
2021/11/21 00:53:54;;;;;;;26.63;19.27;;;6.50;99.90;;;;;;4991995;28;20035;-55
2021/11/21 00:56:21;;;;;;;26.65;15.20;;;6.50;99.90;;;;;;4989255;28;20040;-55
2021/11/21 00:58:47;;;;;;;28.70;17.38;;;6.40;99.90;;;;;;4989806;28;20057;-54
2021/11/21 01:01:13;;;;;;;27.67;17.08;;;6.40;99.90;;;;;;4987213;28;20034;-55
2021/11/21 01:03:40;;;;;;;26.42;16.05;;;6.30;99.90;;;;;;5007849;28;20046;-55
2021/11/21 01:06:06;;;;;;;26.33;19.02;;;6.30;99.90;;;;;;4991915;28;20382;-54
2021/11/21 01:08:32;;;;;;;23.42;16.25;;;6.40;99.90;;;;;;4995092;28;20489;-54
2021/11/21 01:11:00;;;;;;;24.20;17.77;;;6.40;99.90;;;;;;5007484;28;20048;-55
2021/11/21 01:13:27;;;;;;;23.02;15.95;;;6.30;99.90;;;;;;4987753;28;20122;-55
2021/11/21 01:15:53;;;;;;;25.85;15.93;;;6.00;99.90;;;;;;4993634;28;20089;-54
2021/11/21 01:18:20;;;;;;;24.88;17.63;;;5.70;99.90;;;;;;4997564;28;20077;-55
2021/11/21 01:20:46;;;;;;;31.88;17.67;;;5.60;99.90;;;;;;5009410;28;20039;-55
2021/11/21 01:23:14;;;;;;;26.13;17.02;;;5.50;99.90;;;;;;4994820;28;20062;-54
2021/11/21 01:25:41;;;;;;;27.25;17.55;;;5.30;99.90;;;;;;4995290;28;20086;-54
2021/11/21 01:28:07;;;;;;;23.98;16.00;;;5.20;99.90;;;;;;5008683;28;20042;-54
2021/11/21 01:30:34;;;;;;;38.00;19.75;;;5.20;99.90;;;;;;4995080;28;20072;-54
2021/11/21 01:33:01;;;;;;;27.50;18.17;;;5.10;99.90;;;;;;4997211;28;20034;-54
2021/11/21 01:35:28;;;;;;;22.92;17.77;;;5.20;99.90;;;;;;5006705;28;20371;-54
2021/11/21 01:37:54;;;;;;;26.95;18.23;;;5.40;99.90;;;;;;4994824;28;20030;-54
2021/11/21 01:40:21;;;;;;;22.48;16.10;;;5.60;99.90;;;;;;4994538;28;20038;-54
2021/11/21 01:42:48;;;;;;;27.23;16.63;;;5.30;99.90;;;;;;4995102;28;20068;-54
2021/11/21 01:45:14;;;;;;;24.45;17.65;;;5.20;99.90;;;;;;4994245;28;20045;-54
2021/11/21 01:47:43;;;;;;;24.30;16.80;;;5.20;99.90;;;;;;4995061;28;20045;-55
2021/11/21 01:50:12;;;;;;;23.27;16.35;;;5.10;99.90;;;;;;4993806;28;20101;-54
2021/11/21 01:52:38;;;;;;;25.02;16.98;;;5.00;99.90;;;;;;4994630;28;20035;-55
2021/11/21 01:55:05;;;;;;;26.63;17.88;;;5.00;99.90;;;;;;4994026;28;20027;-54
2021/11/21 01:57:31;;;;;;;22.88;15.48;;;5.00;99.90;;;;;;4994514;28;20106;-54
2021/11/21 02:00:01;;;;;;;24.52;16.58;;;4.90;99.90;;;;;;4992239;28;20185;-54
2021/11/21 02:02:27;;;;;;;22.02;14.10;;;5.10;99.90;;;;;;4993763;28;20101;-54
2021/11/21 02:04:53;;;;;;;24.05;15.45;;;4.90;99.90;;;;;;5000880;28;20034;-55
2021/11/21 02:07:18;;;;;;;24.40;17.27;;;4.70;99.90;;;;;;4996044;28;20022;-54
2021/11/21 02:09:44;;;;;;;23.55;15.90;;;4.80;99.90;;;;;;4994090;28;20474;-54
2021/11/21 02:12:10;;;;;;;28.38;18.40;;;4.70;99.90;;;;;;4994016;28;20487;-54
2021/11/21 02:14:36;;;;;;;21.40;16.52;;;4.80;99.90;;;;;;5008357;28;20117;-54
2021/11/21 02:17:02;;;;;;;27.77;19.30;;;4.90;99.90;;;;;;5008200;28;20482;-54
2021/11/21 02:19:28;;;;;;;26.63;17.48;;;4.90;99.90;;;;;;4993496;28;20478;-54
2021/11/21 02:21:54;;;;;;;27.42;19.17;;;5.10;99.90;;;;;;4994303;28;20051;-54
2021/11/21 02:24:20;;;;;;;27.33;18.27;;;5.20;99.90;;;;;;5008174;28;20049;-55
2021/11/21 02:26:46;;;;;;;40.72;26.15;;;5.20;99.90;;;;;;4994015;28;20042;-54
2021/11/21 02:29:12;;;;;;;41.78;29.73;;;5.20;99.90;;;;;;4992892;28;20490;-54
2021/11/21 02:31:38;;;;;;;38.25;26.27;;;5.10;99.90;;;;;;4995178;28;20062;-54
2021/11/21 02:34:05;;;;;;;32.30;20.95;;;5.10;99.90;;;;;;4991674;28;20157;-54
2021/11/21 02:36:31;;;;;;;29.17;19.40;;;5.20;99.90;;;;;;4993701;28;20026;-54
2021/11/21 02:38:57;;;;;;;31.50;22.08;;;5.20;99.90;;;;;;4993561;28;20023;-54
2021/11/21 02:41:23;;;;;;;32.08;22.02;;;5.30;99.90;;;;;;4993504;28;20040;-54
2021/11/21 02:43:49;;;;;;;42.35;29.10;;;5.30;99.90;;;;;;4993213;28;20492;-54
2021/11/21 02:46:17;;;;;;;41.63;27.15;;;5.30;99.90;;;;;;4994153;28;20034;-53
2021/11/21 02:48:43;;;;;;;36.70;24.02;;;5.20;99.90;;;;;;4993512;28;20110;-53
2021/11/21 02:51:12;;;;;;;34.35;24.00;;;5.20;99.90;;;;;;4993317;28;20054;-54
2021/11/21 02:53:39;;;;;;;31.05;22.60;;;5.10;99.90;;;;;;4993620;28;20026;-54
2021/11/21 02:56:10;;;;;;;30.67;21.20;;;5.20;99.90;;;;;;4993409;28;20027;-54
2021/11/21 02:58:36;;;;;;;33.22;23.08;;;5.10;99.90;;;;;;4993288;28;20076;-54
2021/11/21 03:01:12;;;;;;;33.25;22.33;;;5.10;99.90;;;;;;4993231;28;20037;-54
2021/11/21 03:03:37;;;;;;;32.65;22.85;;;5.20;99.90;;;;;;4993161;28;20486;-54
2021/11/21 03:06:04;;;;;;;31.33;23.35;;;5.20;99.90;;;;;;4993021;28;20037;-54
2021/11/21 03:08:30;;;;;;;31.95;22.17;;;5.30;99.90;;;;;;4993373;28;20114;-54
2021/11/21 03:10:56;;;;;;;29.75;22.42;;;5.20;99.90;;;;;;4990975;28;20129;-54
2021/11/21 03:13:22;;;;;;;32.22;22.15;;;5.10;99.90;;;;;;4993877;28;20026;-54
2021/11/21 03:15:48;;;;;;;29.63;22.50;;;5.20;99.90;;;;;;4993394;28;20035;-54
2021/11/21 03:18:14;;;;;;;33.20;20.80;;;4.90;99.90;;;;;;4993421;28;20030;-54
2021/11/21 03:20:41;;;;;;;32.45;21.48;;;4.70;99.90;;;;;;5007383;28;20125;-54
2021/11/21 03:23:07;;;;;;;31.55;21.65;;;4.70;99.90;;;;;;4993229;28;20038;-55
2021/11/21 03:25:34;;;;;;;30.35;20.13;;;4.60;99.90;;;;;;4993090;28;20241;-55
2021/11/21 03:28:03;;;;;;;32.22;21.02;;;4.60;99.90;;;;;;5007561;28;20041;-55
2021/11/21 03:30:28;;;;;;;28.38;20.42;;;4.50;99.90;;;;;;4993197;28;20058;-54
2021/11/21 03:32:54;;;;;;;26.98;19.35;;;4.50;99.90;;;;;;4993004;28;20467;-55
2021/11/21 03:35:21;;;;;;;30.75;19.63;;;4.60;99.90;;;;;;4993205;28;20026;-55
2021/11/21 03:37:47;;;;;;;27.83;17.85;;;4.80;99.90;;;;;;4992611;28;20390;-55
2021/11/21 03:40:16;;;;;;;25.80;18.20;;;4.90;99.90;;;;;;4993096;28;20030;-54
2021/11/21 03:42:42;;;;;;;23.73;16.98;;;4.70;99.90;;;;;;4992700;28;20117;-55
2021/11/21 03:45:09;;;;;;;23.35;16.70;;;4.60;99.90;;;;;;4993360;28;20113;-54
2021/11/21 03:47:35;;;;;;;25.15;17.20;;;4.40;99.90;;;;;;4993128;28;20084;-55
2021/11/21 03:50:01;;;;;;;25.73;18.65;;;4.30;99.90;;;;;;4992421;28;20046;-55
2021/11/21 03:52:27;;;;;;;24.60;18.17;;;4.70;99.90;;;;;;4990920;28;20049;-54
2021/11/21 03:54:52;;;;;;;27.13;17.60;;;5.00;99.90;;;;;;4993047;28;20038;-55
2021/11/21 03:57:18;;;;;;;22.70;16.55;;;4.90;99.90;;;;;;4991575;28;20064;-54
2021/11/21 03:59:44;;;;;;;26.85;17.80;;;4.80;99.90;;;;;;4990759;28;20125;-54
2021/11/21 04:02:10;;;;;;;22.30;16.73;;;4.70;99.90;;;;;;5006793;28;20054;-54
2021/11/21 04:04:36;;;;;;;24.95;18.55;;;4.50;99.90;;;;;;4974414;28;20030;-54
2021/11/21 04:07:02;;;;;;;27.65;17.23;;;4.60;99.90;;;;;;4992734;28;20034;-54
2021/11/21 04:09:28;;;;;;;22.90;16.77;;;4.80;99.90;;;;;;4990961;28;20049;-54
2021/11/21 04:11:54;;;;;;;24.63;17.08;;;4.90;99.90;;;;;;5007004;28;20060;-54
2021/11/21 04:14:20;;;;;;;26.85;17.88;;;4.80;99.90;;;;;;4992444;28;20105;-54
2021/11/21 04:16:46;;;;;;;28.88;18.50;;;5.00;99.90;;;;;;4993527;28;20030;-55
2021/11/21 04:19:13;;;;;;;27.55;18.25;;;5.10;99.90;;;;;;4996399;28;20458;-54
2021/11/21 04:21:38;;;;;;;29.20;20.67;;;5.30;99.90;;;;;;4995911;28;20022;-54
2021/11/21 04:24:06;;;;;;;26.08;19.10;;;5.40;99.90;;;;;;4994088;28;20383;-54
2021/11/21 04:26:32;;;;;;;25.90;17.95;;;5.20;99.90;;;;;;4995766;28;20061;-54
2021/11/21 04:28:58;;;;;;;31.40;21.40;;;5.00;99.90;;;;;;4993922;28;20042;-55
2021/11/21 04:31:24;;;;;;;31.85;20.25;;;4.90;99.90;;;;;;4996188;28;20026;-54
2021/11/21 04:33:50;;;;;;;29.77;22.58;;;5.00;99.90;;;;;;4996169;28;20030;-54
2021/11/21 04:36:16;;;;;;;31.08;21.25;;;5.10;99.90;;;;;;4977615;28;20038;-54
2021/11/21 04:38:42;;;;;;;28.98;20.65;;;5.20;99.90;;;;;;4996101;28;20080;-57
2021/11/21 04:41:07;;;;;;;29.92;20.23;;;5.20;99.90;;;;;;4993430;28;20042;-55
2021/11/21 04:43:33;;;;;;;29.83;20.83;;;5.10;99.90;;;;;;4993730;28;20101;-54
2021/11/21 04:45:59;;;;;;;30.90;20.20;;;5.20;99.90;;;;;;4995843;28;20053;-54
2021/11/21 04:48:25;;;;;;;27.60;20.08;;;5.30;99.90;;;;;;4996006;28;20034;-53
2021/11/21 04:50:52;;;;;;;28.02;19.13;;;5.40;99.90;;;;;;4995429;28;20574;-54
2021/11/21 04:53:18;;;;;;;29.02;20.25;;;5.40;99.90;;;;;;4995200;28;20050;-53
2021/11/21 04:55:43;;;;;;;24.55;19.48;;;5.40;99.90;;;;;;4995476;28;20022;-53
2021/11/21 04:58:09;;;;;;;24.85;18.55;;;5.50;99.90;;;;;;4976337;28;20472;-53
2021/11/21 05:00:35;;;;;;;28.92;20.70;;;5.20;99.90;;;;;;4995681;28;20023;-55
2021/11/21 05:03:01;;;;;;;29.58;19.05;;;5.10;99.90;;;;;;4995146;28;20487;-53
2021/11/21 05:05:27;;;;;;;31.65;21.45;;;5.10;99.90;;;;;;4994051;28;20364;-54
2021/11/21 05:07:53;;;;;;;24.95;17.92;;;5.20;99.90;;;;;;4994444;28;20033;-54
2021/11/21 05:10:20;;;;;;;29.88;20.77;;;5.20;99.90;;;;;;4994254;28;20402;-54
2021/11/21 05:12:46;;;;;;;30.30;20.50;;;5.30;99.90;;;;;;4975829;28;20035;-54
2021/11/21 05:15:16;;;;;;;29.88;19.42;;;5.10;99.90;;;;;;4992107;28;20049;-54
2021/11/21 05:17:45;;;;;;;32.15;20.05;;;5.20;99.90;;;;;;4993910;28;20128;-53
2021/11/21 05:20:11;;;;;;;28.63;20.25;;;5.20;99.90;;;;;;4992057;28;20065;-54
2021/11/21 05:22:37;;;;;;;28.83;18.85;;;5.30;99.90;;;;;;4994041;28;20043;-54
2021/11/21 05:25:03;;;;;;;29.23;19.70;;;5.40;99.90;;;;;;4993999;28;20379;-54
2021/11/21 05:27:29;;;;;;;24.75;18.27;;;5.40;99.90;;;;;;4991437;28;20045;-54
2021/11/21 05:29:55;;;;;;;25.40;17.67;;;5.30;99.90;;;;;;4975273;28;20069;-54
2021/11/21 05:32:21;;;;;;;24.92;16.08;;;5.00;99.90;;;;;;4994037;28;20069;-54
2021/11/21 05:34:48;;;;;;;27.73;17.33;;;4.80;99.90;;;;;;4993936;28;20022;-53
2021/11/21 05:37:14;;;;;;;34.63;19.88;;;4.60;99.90;;;;;;4993487;28;20037;-54
2021/11/21 05:39:40;;;;;;;27.42;18.48;;;4.40;99.90;;;;;;4991669;28;20530;-53
2021/11/21 05:42:06;;;;;;;26.27;19.27;;;4.30;99.90;;;;;;4993318;28;20105;-54
2021/11/21 05:44:32;;;;;;;31.73;20.73;;;4.30;99.90;;;;;;4993444;28;20061;-54
2021/11/21 05:46:58;;;;;;;26.50;19.27;;;4.30;99.90;;;;;;4993958;28;20062;-54
2021/11/21 05:49:24;;;;;;;27.38;19.15;;;4.30;99.90;;;;;;4994661;28;20096;-54
2021/11/21 05:51:50;;;;;;;26.55;18.00;;;4.30;99.90;;;;;;4994562;28;20261;-53
2021/11/21 05:54:15;;;;;;;31.23;20.20;;;4.10;99.90;;;;;;4994365;28;20037;-54
2021/11/21 05:56:41;;;;;;;30.73;19.83;;;4.20;99.90;;;;;;4994320;28;20397;-54
2021/11/21 05:59:07;;;;;;;30.35;21.63;;;4.20;99.90;;;;;;4994112;28;20061;-53
2021/11/21 06:01:33;;;;;;;28.67;20.67;;;4.30;99.90;;;;;;4992068;28;20038;-54
2021/11/21 06:03:59;;;;;;;35.65;22.75;;;4.50;99.90;;;;;;4994473;28;20033;-54
2021/11/21 06:06:25;;;;;;;35.42;25.80;;;4.60;99.90;;;;;;4992188;28;20034;-54
2021/11/21 06:08:51;;;;;;;28.88;21.58;;;4.60;99.90;;;;;;4993934;28;20038;-54
2021/11/21 06:11:16;;;;;;;29.17;21.45;;;4.40;99.90;;;;;;4995338;28;20030;-54
2021/11/21 06:13:43;;;;;;;28.60;19.98;;;4.40;99.90;;;;;;4996697;28;20053;-53
2021/11/21 06:16:09;;;;;;;23.15;18.30;;;4.40;99.90;;;;;;4992039;28;20034;-53
2021/11/21 06:18:35;;;;;;;26.40;19.20;;;4.60;99.90;;;;;;4994100;28;20022;-54
2021/11/21 06:21:02;;;;;;;22.70;17.27;;;4.90;99.90;;;;;;4993900;28;20034;-53
2021/11/21 06:23:33;;;;;;;23.77;16.67;;;6.10;99.90;;;;;;4994282;28;20108;-54
2021/11/21 06:25:59;;;;;;;23.58;17.33;;;7.00;99.90;;;;;;5007493;28;20509;-53
2021/11/21 06:28:25;;;;;;;21.55;15.43;;;8.00;99.90;;;;;;4993672;28;20105;-54
2021/11/21 06:30:52;;;;;;;17.05;13.45;;;9.40;99.90;;;;;;4993840;28;20039;-53
2021/11/21 06:33:18;;;;;;;19.33;14.40;;;10.70;99.90;;;;;;4993341;28;20474;-54
2021/11/21 06:35:45;;;;;;;24.15;17.70;;;11.40;99.90;;;;;;4991210;28;20701;-53
2021/11/21 06:38:13;;;;;;;21.25;17.77;;;12.10;99.90;;;;;;4993319;28;20042;-53
2021/11/21 06:40:39;;;;;;;21.25;16.30;;;12.80;99.90;;;;;;4991662;28;20034;-54
2021/11/21 06:43:05;;;;;;;19.95;15.65;;;13.20;99.90;;;;;;4998370;28;20042;-54
2021/11/21 06:45:31;;;;;;;17.13;13.98;;;14.00;99.90;;;;;;5013315;28;20068;-54
2021/11/21 06:47:57;;;;;;;19.80;14.73;;;14.70;99.90;;;;;;5005819;28;20064;-54
2021/11/21 06:50:23;;;;;;;22.05;17.10;;;15.60;99.90;;;;;;5004550;28;20049;-55
2021/11/21 06:52:49;;;;;;;20.00;16.05;;;17.00;99.90;;;;;;5001119;28;20037;-55
2021/11/21 06:55:16;;;;;;;35.67;26.42;;;18.10;98.30;;;;;;5005119;28;20022;-52
2021/11/21 06:57:42;;;;;;;34.55;26.95;;;17.50;97.90;;;;;;4998643;28;20029;-48
2021/11/21 07:00:15;;;;;;;19.08;16.15;;;17.80;99.80;;;;;;5000459;28;20521;-49
2021/11/21 07:02:42;;;;;;;28.02;20.30;;;17.90;96.10;;;;;;5013119;28;20046;-49
2021/11/21 07:05:08;;;;;;;52.28;33.47;;;;;;;;;;4993085;28;20137;-54
2021/11/21 07:07:35;;;;;;;21.60;16.60;;;20.20;92.00;;;;;;4999007;28;20027;-53
2021/11/21 07:10:02;;;;;;;20.17;15.73;;;19.40;91.20;;;;;;5001842;28;20367;-51
2021/11/21 07:12:28;;;;;;;19.25;15.73;;;;;;;;;;5001864;28;20037;-51
2021/11/21 07:14:54;;;;;;;18.15;16.20;;;;;;;;;;5004020;28;20026;-52
2021/11/21 07:17:21;;;;;;;22.25;17.25;;;;;;;;;;5001123;28;20183;-53
2021/11/21 07:19:47;;;;;;;23.83;18.75;;;;;;;;;;5001216;28;20037;-51
2021/11/21 07:22:12;;;;;;;24.38;18.42;;;23.20;84.00;;;;;;4999527;28;20050;-51
2021/11/21 07:24:38;;;;;;;25.40;22.63;;;24.00;83.40;;;;;;5003004;28;20034;-49
2021/11/21 07:27:04;;;;;;;23.85;19.70;;;;;;;;;;5002089;28;20455;-51
2021/11/21 07:29:31;;;;;;;20.98;17.30;;;23.90;93.50;;;;;;5001597;28;20053;-50
2021/11/21 07:31:58;;;;;;;19.75;17.67;;;;;;;;;;4998959;28;20065;-51
2021/11/21 07:34:24;;;;;;;17.58;15.88;;;;;;;;;;4985899;28;20150;-50
2021/11/21 07:36:51;;;;;;;17.73;15.85;;;25.20;77.90;;;;;;5000241;28;20093;-52
2021/11/21 07:39:17;;;;;;;23.00;20.77;;;;;;;;;;5003749;28;20109;-53
2021/11/21 07:41:43;;;;;;;24.23;21.92;;;25.70;99.90;;;;;;5030365;28;20041;-53
2021/11/21 07:44:11;;;;;;;25.90;23.30;;;23.60;78.60;;;;;;5013230;28;20029;-51
2021/11/21 07:46:37;;;;;;;25.88;22.40;;;23.10;79.70;;;;;;5023901;28;20044;-53
2021/11/21 07:49:04;;;;;;;21.30;19.30;;;23.90;79.90;;;;;;5028207;28;20084;-53
2021/11/21 07:51:30;;;;;;;22.92;20.40;;;23.30;79.50;;;;;;5029000;28;20040;-51
2021/11/21 07:53:56;;;;;;;20.23;17.67;;;24.40;79.30;;;;;;5040713;28;20025;-52
2021/11/21 07:56:22;;;;;;;23.42;19.23;;;;;;;;;;5030954;28;20166;-52
2021/11/21 07:58:48;;;;;;;19.00;17.02;;;;;;;;;;5014833;28;20030;-51
2021/11/21 08:01:15;;;;;;;19.80;17.58;;;;;;;;;;5014854;28;20068;-51
2021/11/21 08:03:41;;;;;;;21.17;19.02;;;27.10;74.00;;;;;;5032672;28;20045;-51
2021/11/21 08:06:07;;;;;;;20.83;18.63;;;27.50;73.50;;;;;;5037274;28;20047;-52
2021/11/21 08:08:33;;;;;;;20.23;18.15;;;27.20;73.50;;;;;;5031356;28;20080;-52
2021/11/21 08:10:59;;;;;;;20.77;18.67;;;27.60;73.20;;;;;;5031383;28;20029;-51
2021/11/21 08:13:26;;;;;;;24.00;21.60;;;;;;;;;;5002009;28;20386;-51
2021/11/21 08:15:56;;;;;;;22.35;19.80;;;24.50;74.40;;;;;;4994379;28;20038;-49
2021/11/21 08:18:23;;;;;;;22.98;20.52;;;24.80;76.60;;;;;;4994397;28;20041;-49
2021/11/21 08:20:49;;;;;;;19.73;17.60;;;24.30;86.20;;;;;;5019959;28;20112;-50
2021/11/21 08:23:16;;;;;;;23.70;21.17;;;25.80;75.00;;;;;;5002113;28;20073;-49
2021/11/21 08:25:43;;;;;;;22.77;20.40;;;25.30;74.20;;;;;;4983598;28;20038;-49
2021/11/21 08:28:09;;;;;;;23.83;21.38;;;;;;;;;;4981567;28;20097;-49
2021/11/21 08:30:38;;;;;;;24.17;21.58;;;;;;;;;;4969090;28;20049;-48
2021/11/21 08:33:05;;;;;;;25.40;22.80;;;24.50;79.90;;;;;;4959331;28;20089;-49
2021/11/21 08:35:31;;;;;;;23.88;21.33;;;;;;;;;;5001192;28;20061;-48
2021/11/21 08:37:57;;;;;;;23.95;21.75;;;26.20;74.00;;;;;;5011542;28;20092;-48
2021/11/21 08:40:23;;;;;;;25.50;23.17;;;24.80;74.50;;;;;;5011591;28;20046;-47
2021/11/21 08:42:49;;;;;;;25.23;22.65;;;24.90;75.00;;;;;;4978697;28;20045;-50
2021/11/21 08:45:15;;;;;;;25.98;23.58;;;25.70;73.90;;;;;;4998736;28;20092;-48
2021/11/21 08:47:41;;;;;;;22.90;20.70;;;25.00;73.90;;;;;;4960536;28;20127;-48
2021/11/21 08:50:08;;;;;;;25.95;23.30;;;;;;;;;;4991334;28;20086;-47
2021/11/21 08:52:35;;;;;;;25.10;22.65;;;;;;;;;;4998923;28;20034;-48
2021/11/21 08:55:03;;;;;;;24.38;21.98;;;26.30;72.50;;;;;;5010517;28;20061;-48
2021/11/21 08:57:29;;;;;;;28.58;25.88;;;26.20;74.00;;;;;;5000352;28;20049;-50
2021/11/21 08:59:55;;;;;;;28.65;25.75;;;26.10;73.30;;;;;;4989473;28;20038;-48
2021/11/21 09:02:21;;;;;;;24.92;22.52;;;25.70;74.10;;;;;;4930941;29;20212;-49
2021/11/21 09:04:46;;;;;;;26.27;23.77;;;25.00;74.20;;;;;;4935339;29;20032;-48
2021/11/21 09:07:13;;;;;;;25.55;23.05;;;;;;;;;;4933629;29;20051;-48
2021/11/21 09:09:38;;;;;;;26.55;23.73;;;26.60;73.70;;;;;;4932360;29;20044;-49
2021/11/21 09:12:05;;;;;;;26.58;24.08;;;27.30;72.60;;;;;;4901677;29;20036;-48
2021/11/21 09:14:31;;;;;;;24.90;22.50;;;27.50;72.70;;;;;;4930672;29;20027;-47
2021/11/21 09:16:56;;;;;;;27.70;25.25;;;27.90;72.00;;;;;;4899206;29;20035;-48
2021/11/21 09:19:23;;;;;;;26.05;23.50;;;27.90;71.60;;;;;;4899111;29;20058;-48
2021/11/21 09:21:49;;;;;;;29.85;27.25;;;26.90;72.90;;;;;;4930297;29;20439;-48
2021/11/21 09:24:15;;;;;;;29.50;26.83;;;26.90;71.60;;;;;;4912625;29;20031;-49
2021/11/21 09:26:41;;;;;;;25.88;23.70;;;27.40;72.10;;;;;;4883932;29;20439;-49
2021/11/21 09:29:07;;;;;;;23.67;21.38;;;26.30;73.20;;;;;;4920301;28;20039;-47
2021/11/21 09:31:33;;;;;;;24.55;22.35;;;27.20;72.60;;;;;;4947801;28;20031;-48
2021/11/21 09:33:59;;;;;;;42.70;38.75;;;26.90;73.30;;;;;;4975037;28;20059;-48
2021/11/21 09:36:24;;;;;;;32.17;29.60;;;27.40;72.20;;;;;;4972766;28;20046;-47
2021/11/21 09:38:50;;;;;;;24.50;22.38;;;26.50;72.00;;;;;;4939677;28;20141;-47
2021/11/21 09:41:16;;;;;;;23.75;21.75;;;26.90;72.90;;;;;;4957791;28;20038;-48
2021/11/21 09:43:42;;;;;;;28.42;26.13;;;26.70;73.00;;;;;;4991962;28;20054;-48
2021/11/21 09:46:10;;;;;;;33.92;31.33;;;;;;;;;;4992325;28;20117;-52
2021/11/21 09:48:36;;;;;;;37.67;35.00;;;;;;;;;;4987049;28;20077;-49
2021/11/21 09:51:03;;;;;;;33.80;30.00;;;24.60;96.30;;;;;;4955304;28;20375;-48
2021/11/21 09:53:29;;;;;;;36.47;33.40;;;25.00;76.70;;;;;;4987405;28;20042;-48
2021/11/21 09:55:55;;;;;;;48.25;44.95;;;;;;;;;;4987181;28;20031;-49
2021/11/21 09:58:22;;;;;;;32.85;30.35;;;25.10;74.50;;;;;;4988232;28;20030;-50
2021/11/21 10:00:48;;;;;;;28.10;25.70;;;25.00;75.60;;;;;;4989100;28;20141;-48
2021/11/21 10:03:15;;;;;;;34.05;31.60;;;25.60;75.40;;;;;;4987936;28;20039;-49
2021/11/21 10:05:50;;;;;;;25.88;23.65;;;26.40;74.50;;;;;;4985405;28;20047;-49
2021/11/21 10:08:19;;;;;;;53.33;50.15;;;26.40;90.80;;;;;;4985863;28;20050;-45
2021/11/21 10:10:49;;;;;;;34.22;31.73;;;;;;;;;;4984091;28;20018;-49
2021/11/21 10:13:34;;;;;;;26.65;24.33;;;;;;;;;;4984678;28;20077;-49
2021/11/21 10:16:19;;;;;;;30.58;28.33;;;;;;;;;;4990772;28;20375;-48
2021/11/21 10:19:08;;;;;;;22.20;20.23;;;26.10;98.10;;;;;;4986892;28;20077;-50
2021/11/21 10:21:36;;;;;;;24.77;22.55;;;26.80;74.40;;;;;;5013834;28;20037;-45
2021/11/21 10:24:24;;;;;;;24.77;22.40;;;26.70;73.80;;;;;;5002276;28;20105;-53
2021/11/21 10:27:12;;;;;;;28.50;26.20;;;27.60;73.80;;;;;;4982128;28;20042;-46
2021/11/21 10:29:42;;;;;;;21.38;19.48;;;27.60;72.80;;;;;;4989294;28;20480;-50
2021/11/21 10:32:14;;;;;;;22.48;20.48;;;;;;;;;;5003614;28;20045;-47
2021/11/21 10:35:14;;;;;;;31.27;25.60;;;26.00;72.60;;;;;;4987621;28;20038;-49
2021/11/21 10:37:41;;;;;;;19.73;17.85;;;26.50;74.50;;;;;;4987675;28;20053;-48
2021/11/21 10:40:14;;;;;;;32.78;30.48;;;27.30;73.90;;;;;;4986726;28;20030;-49
2021/11/21 10:42:46;;;;;;;21.25;19.27;;;26.20;72.70;;;;;;5015614;28;20046;-49
2021/11/21 10:45:18;;;;;;;24.00;21.08;;;26.70;73.30;;;;;;4986556;28;20497;-50
2021/11/21 10:47:52;;;;;;;20.60;18.80;;;27.20;94.10;;;;;;4987514;28;20034;-48
2021/11/21 10:50:30;;;;;;;18.75;16.95;;;27.50;73.40;;;;;;5002637;28;20142;-50
2021/11/21 10:52:57;;;;;;;20.23;18.30;;;27.00;72.70;;;;;;4988467;28;20092;-50
2021/11/21 10:55:25;;;;;;;23.10;20.77;;;;;;;;;;5002205;28;20042;-48
2021/11/21 10:57:51;;;;;;;26.13;23.92;;;26.60;72.60;;;;;;4983325;28;20038;-50
2021/11/21 11:00:27;;;;;;;18.98;17.17;;;26.50;81.70;;;;;;4987496;28;20037;-48
2021/11/21 11:02:53;;;;;;;21.63;19.58;;;;;;;;;;4987512;28;20042;-48
2021/11/21 11:05:21;;;;;;;19.30;17.58;;;25.70;73.40;;;;;;4991302;28;20030;-49
2021/11/21 11:07:47;;;;;;;18.35;16.55;;;;;;;;;;4983955;28;20065;-49
2021/11/21 11:10:28;;;;;;;17.10;15.32;;;25.30;74.20;;;;;;4986949;28;20041;-48
2021/11/21 11:13:06;;;;;;;17.10;15.32;;;25.40;74.20;;;;;;4987630;28;20034;-49
2021/11/21 11:15:38;;;;;;;22.05;19.95;;;25.70;74.30;;;;;;4989716;28;20498;-48
2021/11/21 11:18:06;;;;;;;25.80;22.77;;;25.40;74.90;;;;;;4986329;28;20023;-49
2021/11/21 11:20:36;;;;;;;27.48;21.50;;;25.60;74.30;;;;;;4989786;28;20494;-50
2021/11/21 11:23:02;;;;;;;30.02;26.38;;;26.30;74.90;;;;;;4979559;28;20034;-48
2021/11/21 11:25:33;;;;;;;33.53;29.10;;;26.10;74.50;;;;;;4985710;28;20728;-50
2021/11/21 11:28:19;;;;;;;19.70;17.80;;;25.90;75.00;;;;;;5010164;28;20071;-49
2021/11/21 11:30:45;;;;;;;53.10;38.85;;;26.00;75.30;;;;;;4993107;28;20050;-49
2021/11/21 11:33:14;;;;;;;42.13;34.20;;;25.70;74.70;;;;;;4992100;28;20030;-48
2021/11/21 11:35:45;;;;;;;42.10;35.90;;;25.50;75.60;;;;;;4994062;28;20521;-47
2021/11/21 11:38:31;;;;;;;29.65;21.85;;;25.60;75.20;;;;;;4995857;28;20026;-47
2021/11/21 11:41:04;;;;;;;38.80;31.05;;;25.40;74.70;;;;;;4988543;28;20041;-48
2021/11/21 11:43:38;;;;;;;36.22;29.33;;;25.80;75.80;;;;;;4988780;28;20057;-47
2021/11/21 11:46:09;;;;;;;19.92;17.52;;;25.70;75.90;;;;;;5004597;28;20050;-50
2021/11/21 11:48:51;;;;;;;21.50;17.67;;;25.80;74.90;;;;;;4990536;28;20198;-47
2021/11/21 11:51:23;;;;;;;18.23;16.13;;;25.40;74.70;;;;;;4995288;28;20295;-47
2021/11/21 11:53:50;;;;;;;34.47;26.10;;;25.00;74.70;;;;;;4992263;28;20026;-49
2021/11/21 11:56:21;;;;;;;21.00;16.70;;;24.60;75.10;;;;;;4989761;28;20032;-48
2021/11/21 11:58:49;;;;;;;16.45;13.32;;;24.30;76.20;;;;;;4996851;28;20517;-49
2021/11/21 12:01:38;;;;;;;17.30;14.70;;;23.60;77.10;;;;;;5000281;28;20400;-49
2021/11/21 12:04:30;;;;;;;17.70;13.63;;;23.90;76.60;;;;;;4984820;28;20053;-47
2021/11/21 12:07:22;;;;;;;19.67;15.57;;;23.60;76.90;;;;;;4979115;28;20061;-47
2021/11/21 12:10:12;;;;;;;15.70;11.98;;;23.10;77.50;;;;;;5007964;28;20130;-47
2021/11/21 12:12:58;;;;;;;19.25;14.57;;;22.80;78.60;;;;;;4991831;28;20144;-48
2021/11/21 12:15:40;;;;;;;15.40;11.68;;;22.50;93.10;;;;;;4989044;28;20048;-48
2021/11/21 12:18:07;;;;;;;17.13;14.18;;;22.10;79.80;;;;;;4988746;28;20030;-50
2021/11/21 12:20:58;;;;;;;17.52;12.70;;;21.90;80.50;;;;;;4987679;28;20045;-50
2021/11/21 12:23:42;;;;;;;16.75;13.05;;;21.90;80.60;;;;;;4989868;28;20389;-49
2021/11/21 12:26:23;;;;;;;19.25;14.90;;;21.60;81.20;;;;;;4991900;28;20026;-48
2021/11/21 12:29:04;;;;;;;15.48;12.45;;;21.50;82.80;;;;;;4994502;28;20038;-49
2021/11/21 12:31:36;;;;;;;18.10;13.90;;;22.00;80.80;;;;;;4993224;28;20030;-47
2021/11/21 12:34:27;;;;;;;21.85;14.57;;;22.10;81.50;;;;;;4995789;28;20065;-48
2021/11/21 12:37:18;;;;;;;22.05;14.98;;;21.90;81.50;;;;;;4989268;28;20030;-49
2021/11/21 12:39:54;;;;;;;18.83;13.38;;;21.80;81.60;;;;;;4992154;28;20085;-47
2021/11/21 12:42:30;;;;;;;20.10;15.35;;;21.70;82.00;;;;;;4992896;28;20038;-46
2021/11/21 12:45:11;;;;;;;22.23;14.15;;;21.10;82.40;;;;;;4990970;28;20034;-49